الصفحة الرئيسية
METAR-TAF:

METAR-TAF

مطار :

كافالا, اليونان

دائرة عرض: 40-59N, خط طول: 024-36E, ارتفاع: 5 متر

مراقبة الطقس الحالي

تاريخ ووقت الإصدار 19 دقيقة قبل الساعة 03:50UTC
رياح هادئة
درجة الحرارة 4°درجة مئوية
الرطوبة 87%
ضغط 1015 hPa
الرؤية 10 كم أو أكثر
غيوم متفرقة على ارتفاع 2500 قدم
غيوم متفرقة على ارتفاع 8000 قدم

METAR: LGKV 090350Z 00000KT 9999 SCT025 SCT080 04/02 Q1015

زمن: 06:09 (04:09 UTC)

توقعات

تاريخ ووقت الإصدار 5ساعات و 9 دقيقة قبل الساعة 23:00UTC
التوقعات صالحة من09 الساعة 00 UTC إلى 09 الساعة 24 UTC
ريح 3 عقدةمن اتجاهات متغيرة
الرؤية 10 كم أو أكثر
غيوم مفككة على ارتفاع 2500 قدم
غيوم مفككة على ارتفاع 8000 قدم
أصبح
من 09 الساعة 05 UTC إلى 09 الساعة 07 UTC
غيوم متفرقة على ارتفاع 2500 قدم

TAF: LGKV 082300Z 0900/0924 VRB03KT 9999 BKN025 BKN080 BECMG 0905/0907 SCT025

أرصاد الطقس والتوقعات من أكثر من 4000 مطار (تقارير الطقس للمطار METAR والتنبؤ بالطقس بالمطارTAF).

المحطات المتاحة هي النقط الصفراء والحمراء على الخريطة.

حرك المؤشر فوق النقطة لمعرفة اسم المحطة.

ثم انقر لمعرفة أرصاد وتوقعات الطقس.

لتغيير الخارطة: اضغط على الأزرار الخضراء مع رمز الصليب الأسود للتكبير. على الزر الأخضر مع شرطة للتصغير، أو على الأسهم الخضراء للخرائط المجاورة.


METAR-TAF: